createdAt,value
2023-02-12T00:03:14.900Z,103871.06
2023-02-12T00:08:18.114Z,103879.69
2023-02-12T00:13:25.392Z,103886.13
2023-02-12T00:18:28.353Z,103885.53
2023-02-12T00:23:32.079Z,103884.59
2023-02-12T00:28:36.922Z,103882.75
2023-02-12T00:33:40.736Z,103877.50
2023-02-12T00:38:43.967Z,103889.22
2023-02-12T00:43:48.743Z,103884.66
2023-02-12T00:48:51.984Z,103876.78
2023-02-12T00:53:56.774Z,103886.78
2023-02-12T00:59:01.541Z,103877.22
2023-02-12T01:04:04.791Z,103886.78
2023-02-12T01:09:07.763Z,103878.91
2023-02-12T01:14:12.144Z,103875.72
2023-02-12T01:19:15.821Z,103874.19
2023-02-12T01:24:19.431Z,103877.84
2023-02-12T01:29:23.766Z,103877.84
2023-02-12T01:34:26.704Z,103873.41
2023-02-12T01:39:29.687Z,103876.03
2023-02-12T01:44:36.052Z,103871.56
2023-02-12T01:49:42.296Z,103876.78
2023-02-12T01:54:45.467Z,103870.50
2023-02-12T01:59:53.716Z,103882.16
2023-02-12T02:04:59.663Z,103883.56
2023-02-12T02:10:04.261Z,103868.97
2023-02-12T02:15:10.059Z,103885.59
2023-02-12T02:20:57.445Z,103875.25
2023-02-12T02:26:29.898Z,103874.19
2023-02-12T02:31:40.627Z,103882.47
2023-02-12T02:36:59.696Z,103876.06
2023-02-12T02:42:12.477Z,103882.34
2023-02-12T02:47:21.301Z,103877.88
2023-02-12T02:52:29.988Z,103874.19
2023-02-12T02:57:37.687Z,103862.19
2023-02-12T03:02:46.618Z,103866.66
2023-02-12T03:07:54.942Z,103869.16
2023-02-12T03:13:03.457Z,103864.38
2023-02-12T03:18:11.070Z,103866.06
2023-02-12T03:23:18.147Z,103862.69
2023-02-12T03:28:27.922Z,103861.88
2023-02-12T03:33:39.524Z,103861.88
2023-02-12T03:38:48.718Z,103868.97
2023-02-12T03:43:57.053Z,103868.84
2023-02-12T03:49:04.975Z,103866.84
2023-02-12T03:54:10.711Z,103858.81
2023-02-12T03:59:13.886Z,103864.22
2023-02-12T04:04:18.866Z,103857.91
2023-02-12T04:09:23.960Z,103876.06
2023-02-12T04:14:37.457Z,103881.28
2023-02-12T04:19:56.844Z,103893.13
2023-02-12T04:25:09.313Z,103892.06
2023-02-12T04:30:20.328Z,103882.84
2023-02-12T04:35:28.335Z,103900.38
2023-02-12T04:40:31.760Z,103910.50
2023-02-12T04:45:37.045Z,103896.69
2023-02-12T04:50:43.260Z,103896.69
2023-02-12T04:55:47.435Z,103897.59
2023-02-12T05:00:50.445Z,103894.50
2023-02-12T05:05:55.185Z,103902.84
2023-02-12T05:10:58.332Z,103894.69
2023-02-12T05:16:04.601Z,103903.16
2023-02-12T05:21:09.040Z,103896.69
2023-02-12T05:26:14.565Z,103907.13
2023-02-12T05:31:21.672Z,103893.13
2023-02-12T05:36:26.364Z,103903.47
2023-02-12T05:41:34.803Z,103894.81
2023-02-12T05:46:38.260Z,103894.81
2023-02-12T05:51:42.678Z,103897.44
2023-02-12T05:56:47.761Z,103901.91
2023-02-12T06:01:52.752Z,103905.44
2023-02-12T06:06:57.876Z,103905.16
2023-02-12T06:12:00.846Z,103903.47
2023-02-12T06:17:03.839Z,103899.16
2023-02-12T06:22:08.225Z,103913.28
2023-02-12T06:27:11.180Z,103896.84
2023-02-12T06:32:15.593Z,103911.28
2023-02-12T06:37:20.054Z,103902.53
2023-02-12T06:42:23.092Z,103912.06
2023-02-12T06:47:26.089Z,103911.44
2023-02-12T06:52:30.659Z,103914.03
2023-02-12T06:57:33.688Z,103909.00
2023-02-12T07:02:38.924Z,103929.28
2023-02-12T07:07:43.460Z,103927.13
2023-02-12T07:12:46.441Z,103931.91
2023-02-12T07:17:49.455Z,103934.66
2023-02-12T07:22:53.835Z,103940.81
2023-02-12T07:27:56.865Z,103937.59
2023-02-12T07:32:59.914Z,103945.13
2023-02-12T07:38:04.312Z,103945.59
2023-02-12T07:43:07.406Z,103966.34
2023-02-12T07:48:12.745Z,103966.53
2023-02-12T07:53:17.116Z,103973.88
2023-02-12T07:58:20.226Z,103964.34
2023-02-12T08:03:23.236Z,103955.13
2023-02-12T08:08:27.565Z,103973.28
2023-02-12T08:13:30.809Z,103973.44
2023-02-12T08:18:35.282Z,103961.88
2023-02-12T08:23:40.267Z,103975.59
2023-02-12T08:28:45.689Z,103977.59
2023-02-12T08:33:50.902Z,103989.59
2023-02-12T08:38:55.806Z,103986.66
2023-02-12T08:44:00.772Z,103989.91
2023-02-12T08:49:06.026Z,103996.50
2023-02-12T08:54:13.505Z,103993.59
2023-02-12T08:59:17.894Z,103998.19
2023-02-12T09:04:24.267Z,103995.88
2023-02-12T09:09:29.495Z,104001.53
2023-02-12T09:14:32.554Z,103997.34
2023-02-12T09:19:36.619Z,104014.72
2023-02-12T09:24:41.132Z,104010.41
2023-02-12T09:29:44.121Z,104021.63
2023-02-12T09:34:47.179Z,104016.03
2023-02-12T09:39:51.607Z,104016.94
2023-02-12T09:45:04.662Z,104025.06
2023-02-12T09:50:24.708Z,104017.63
2023-02-12T09:55:33.859Z,104012.84
2023-02-12T10:00:36.944Z,104023.72
2023-02-12T10:05:43.888Z,104025.34
2023-02-12T10:10:53.731Z,104026.72
2023-02-12T10:16:08.115Z,104026.66
2023-02-12T10:21:25.750Z,104019.19
2023-02-12T10:26:34.232Z,104025.19
2023-02-12T10:31:40.614Z,104029.56
2023-02-12T10:36:45.158Z,104034.34
2023-02-12T10:41:57.089Z,104021.50
2023-02-12T10:47:00.164Z,104016.84
2023-02-12T10:52:16.502Z,104015.66
2023-02-12T10:57:24.377Z,104009.50
2023-02-12T11:02:29.815Z,104020.06
2023-02-12T11:07:48.992Z,104015.63
2023-02-12T11:12:54.336Z,104011.19
2023-02-12T11:18:00.145Z,104004.16
2023-02-12T11:23:06.741Z,104004.16
2023-02-12T11:28:19.582Z,104009.66
2023-02-12T11:33:29.226Z,104004.19
2023-02-12T11:38:35.821Z,104001.56
2023-02-12T11:43:40.948Z,104007.09
2023-02-12T11:48:48.455Z,104009.47
2023-02-12T11:53:54.890Z,104000.44
2023-02-12T11:59:19.831Z,104000.44
2023-02-12T12:04:25.468Z,103995.78
2023-02-12T12:09:35.996Z,103984.75
2023-02-12T12:14:59.608Z,103987.00
2023-02-12T12:20:10.338Z,103979.81
2023-02-12T12:25:27.427Z,103983.75
2023-02-12T12:30:52.432Z,103974.47
2023-02-12T12:36:08.495Z,103955.03
2023-02-12T12:41:25.254Z,103958.44
2023-02-12T12:46:43.616Z,103964.78
2023-02-12T12:52:01.897Z,103965.28
2023-02-12T12:57:16.914Z,103941.50
2023-02-12T13:02:59.051Z,103942.06
2023-02-12T13:08:11.384Z,103942.31
2023-02-12T13:13:26.353Z,103931.28
2023-02-12T13:18:45.563Z,103927.59
2023-02-12T13:23:53.651Z,103908.28
2023-02-12T13:29:02.029Z,103922.72
2023-02-12T13:34:13.113Z,103914.97
2023-02-12T13:39:28.356Z,103902.97
2023-02-12T13:44:37.826Z,103906.53
2023-02-12T13:49:49.803Z,103910.69
2023-02-12T13:55:02.807Z,103904.25
2023-02-12T14:00:09.302Z,103892.56
2023-02-12T14:05:32.214Z,103889.66
2023-02-12T14:10:38.044Z,103883.38
2023-02-12T14:15:45.102Z,103882.81
2023-02-12T14:20:49.624Z,103885.13
2023-02-12T14:26:04.750Z,103881.63
2023-02-12T14:31:32.856Z,103882.44
2023-02-12T14:36:44.028Z,103858.44
2023-02-12T14:41:48.545Z,103871.75
2023-02-12T14:46:53.555Z,103872.25
2023-02-12T14:52:05.110Z,103876.06
2023-02-12T14:57:11.364Z,103865.66
2023-02-12T15:02:25.446Z,103863.53
2023-02-12T15:07:34.344Z,103870.34
2023-02-12T15:12:41.067Z,103865.34
2023-02-12T15:17:56.596Z,103864.50
2023-02-12T15:23:01.055Z,103864.59
2023-02-12T15:28:13.693Z,103844.34
2023-02-12T15:33:26.995Z,103845.09
2023-02-12T15:38:35.888Z,103840.50
2023-02-12T15:43:42.206Z,103856.41
2023-02-12T15:48:46.040Z,103855.69
2023-02-12T15:53:51.102Z,103850.34
2023-02-12T15:58:57.228Z,103853.09
2023-02-12T16:04:02.737Z,103853.84
2023-02-12T16:09:10.171Z,103855.59
2023-02-12T16:14:21.658Z,103848.09
2023-02-12T16:19:26.811Z,103861.03
2023-02-12T16:24:34.473Z,103852.41
2023-02-12T16:29:40.820Z,103856.88
2023-02-12T16:34:43.784Z,103857.66
2023-02-12T16:40:21.903Z,103853.97
2023-02-12T16:45:44.414Z,103845.41
2023-02-12T16:50:54.005Z,103853.84
2023-02-12T16:55:57.293Z,103848.06
2023-02-12T17:01:04.902Z,103845.28
2023-02-12T17:06:08.345Z,103852.03
2023-02-12T17:11:11.470Z,103857.75
2023-02-12T17:16:29.453Z,103860.53
2023-02-12T17:21:38.394Z,103860.38
2023-02-12T17:26:41.597Z,103859.50
2023-02-12T17:31:46.676Z,103859.84
2023-02-12T17:36:50.106Z,103862.94
2023-02-12T17:41:53.094Z,103880.22
2023-02-12T17:46:58.986Z,103877.16
2023-02-12T17:52:02.230Z,103862.88
2023-02-12T17:57:05.527Z,103873.63
2023-02-12T18:02:12.353Z,103877.50
2023-02-12T18:07:15.853Z,103887.41
2023-02-12T18:12:18.966Z,103880.25
2023-02-12T18:17:23.400Z,103886.72
2023-02-12T18:22:26.530Z,103883.22
2023-02-12T18:27:29.579Z,103876.03
2023-02-12T18:32:33.990Z,103881.41
2023-02-12T18:37:37.102Z,103885.72
2023-02-12T18:42:40.100Z,103883.22
2023-02-12T18:47:44.643Z,103879.53
2023-02-12T18:52:47.645Z,103887.22
2023-02-12T18:57:50.805Z,103870.09
2023-02-12T19:02:55.389Z,103865.31
2023-02-12T19:07:58.438Z,103876.44
2023-02-12T19:13:01.646Z,103872.94
2023-02-12T19:18:06.989Z,103875.72
2023-02-12T19:23:10.169Z,103871.97
2023-02-12T19:28:14.343Z,103876.72
2023-02-12T19:33:19.345Z,103862.31
2023-02-12T19:38:22.391Z,103870.47
2023-02-12T19:43:25.366Z,103867.56
2023-02-12T19:48:29.818Z,103868.63
2023-02-12T19:53:33.634Z,103856.31
2023-02-12T19:58:36.742Z,103864.78
2023-02-12T20:03:41.543Z,103862.66
2023-02-12T20:08:45.109Z,103857.41
2023-02-12T20:13:48.651Z,103860.78
2023-02-12T20:18:55.227Z,103858.66
2023-02-12T20:23:59.543Z,103855.91
2023-02-12T20:29:05.220Z,103861.75
2023-02-12T20:34:13.758Z,103844.41
2023-02-12T20:39:20.494Z,103843.00
2023-02-12T20:44:24.034Z,103849.13
2023-02-12T20:49:28.548Z,103850.41
2023-02-12T20:54:34.455Z,103844.13
2023-02-12T20:59:37.633Z,103852.44
2023-02-12T21:04:42.208Z,103850.41
2023-02-12T21:09:45.388Z,103853.53
2023-02-12T21:14:48.364Z,103851.53
2023-02-12T21:19:52.800Z,103852.75
2023-02-12T21:24:55.877Z,103850.63
2023-02-12T21:29:59.130Z,103859.69
2023-02-12T21:35:03.778Z,103852.31
2023-02-12T21:40:08.486Z,103850.13
2023-02-12T21:45:11.595Z,103840.16
2023-02-12T21:50:16.174Z,103847.06
2023-02-12T21:55:19.136Z,103847.38
2023-02-12T22:00:22.860Z,103848.91
2023-02-12T22:05:29.268Z,103841.84
2023-02-12T22:10:32.299Z,103847.38
2023-02-12T22:15:35.307Z,103839.09
2023-02-12T22:20:39.750Z,103832.91
2023-02-12T22:25:42.799Z,103828.75
2023-02-12T22:30:45.915Z,103830.59
2023-02-12T22:35:50.436Z,103832.13
2023-02-12T22:40:54.705Z,103839.84
2023-02-12T22:45:58.124Z,103824.78
2023-02-12T22:51:09.567Z,103837.06
2023-02-12T22:56:13.000Z,103837.25
2023-02-12T23:01:17.964Z,103825.88
2023-02-12T23:06:24.645Z,103834.81
2023-02-12T23:11:29.193Z,103823.44
2023-02-12T23:16:32.346Z,103825.13
2023-02-12T23:21:36.840Z,103812.19
2023-02-12T23:26:40.087Z,103823.75
2023-02-12T23:31:43.267Z,103819.47
2023-02-12T23:36:47.751Z,103820.09
2023-02-12T23:41:50.893Z,103810.81
2023-02-12T23:46:54.152Z,103801.91
2023-02-12T23:51:58.416Z,103811.75
2023-02-12T23:57:01.471Z,103811.28
